Time;durP1;ratioP1;P1;durP2;ratioP2;P2;SDS_P1;SDS_P2;PMS_P1;PMS_P2;Temp;Humidity;BMP_temperature;BMP_pressure;BME280_temperature;BME280_humidity;BME280_pressure;Samples;Min_cycle;Max_cycle;Signal;HPM_P1;HPM_P2
2022/12/27 00:00:26;;;;;;;30.75;16.52;;;;;;;8.65;65.80;100177.94;7787531;32;38105;-79
2022/12/27 00:04:42;;;;;;;29.70;16.08;;;;;;;8.66;65.89;100173.34;7792361;32;38259;-80
2022/12/27 00:09:00;;;;;;;35.30;16.02;;;;;;;8.64;66.04;100172.75;7791042;32;39882;-80
2022/12/27 00:13:16;;;;;;;36.38;17.33;;;;;;;8.82;65.28;100171.66;7790567;32;40069;-80
2022/12/27 00:17:32;;;;;;;33.00;16.87;;;;;;;8.53;66.68;100174.50;7787630;32;39092;-80
2022/12/27 00:21:48;;;;;;;31.77;17.55;;;;;;;8.64;66.58;100181.75;7770030;32;37611;-81
2022/12/27 00:26:13;;;;;;;33.42;16.95;;;;;;;8.65;66.68;100177.94;7791181;32;39030;-81
2022/12/27 00:30:31;;;;;;;32.25;16.25;;;;;;;8.73;66.25;100146.81;7771946;32;39970;-82
2022/12/27 00:34:47;;;;;;;28.08;15.13;;;;;;;8.65;66.78;100145.31;7765206;32;38860;-79
2022/12/27 00:39:03;;;;;;;33.28;15.35;;;;;;;8.86;66.60;100139.34;7766347;32;37195;-79
2022/12/27 00:43:19;;;;;;;31.90;17.12;;;;;;;9.01;66.15;100137.66;7765375;32;39990;-82
2022/12/27 00:47:35;;;;;;;30.58;16.33;;;;;;;8.97;66.49;100152.84;7765381;32;39860;-81
2022/12/27 00:51:51;;;;;;;29.60;16.65;;;;;;;9.15;66.26;100162.56;7790942;32;37903;-81
2022/12/27 00:56:10;;;;;;;28.92;16.08;;;;;;;8.91;66.60;100148.41;7791281;32;37193;-81
2022/12/27 01:00:26;;;;;;;30.50;16.60;;;;;;;9.08;65.94;100152.97;7775704;32;38278;-80
2022/12/27 01:04:42;;;;;;;27.90;15.95;;;;;;;9.12;65.82;100148.66;7787212;32;39877;-80
2022/12/27 01:09:00;;;;;;;29.23;16.10;;;;;;;9.07;66.04;100148.59;7777400;32;38721;-80
2022/12/27 01:13:16;;;;;;;33.05;16.52;;;;;;;9.08;65.87;100142.09;7790556;32;37073;-81
2022/12/27 01:17:32;;;;;;;30.65;16.80;;;;;;;9.24;65.63;100151.25;7790677;32;40391;-81
2022/12/27 01:21:48;;;;;;;31.70;16.10;;;;;;;9.45;64.69;100142.25;7779886;32;40391;-79
2022/12/27 01:26:07;;;;;;;31.48;17.17;;;;;;;9.29;65.36;100135.81;7772895;32;38605;-79
2022/12/27 01:30:23;;;;;;;30.37;16.70;;;;;;;9.21;65.76;100128.13;7779798;32;37261;-80
2022/12/27 01:34:39;;;;;;;27.05;14.73;;;;;;;9.29;65.53;100121.38;7790665;32;39175;-82
2022/12/27 01:38:56;;;;;;;27.17;14.80;;;;;;;9.14;66.16;100120.16;7787461;32;40830;-83
2022/12/27 01:43:17;;;;;;;30.67;16.42;;;;;;;9.27;66.03;100123.53;7763323;32;37588;-82
2022/12/27 01:47:36;;;;;;;24.83;15.38;;;;;;;9.10;66.84;100123.62;7774563;32;37204;-78
2022/12/27 01:51:52;;;;;;;30.12;15.80;;;;;;;9.30;66.31;100118.41;7770006;32;39241;-82
2022/12/27 01:56:29;;;;;;;31.12;16.15;;;;;;;9.36;65.93;100113.84;7765582;32;39666;-81
2022/12/27 02:00:47;;;;;;;28.85;16.17;;;;;;;9.09;66.23;100102.91;7769466;32;37895;-82
2022/12/27 02:05:03;;;;;;;31.55;16.10;;;;;;;9.25;65.58;100106.66;7772292;32;37098;-81
2022/12/27 02:09:41;;;;;;;30.70;16.52;;;;;;;9.18;65.73;100099.50;7765347;32;40139;-82
2022/12/27 02:13:57;;;;;;;31.98;17.10;;;;;;;9.30;65.40;100096.66;7765335;32;40723;-82
2022/12/27 02:18:13;;;;;;;39.67;18.35;;;;;;;9.05;65.99;100107.22;7792155;32;38683;-81
2022/12/27 02:27:55;;;;;;;31.10;17.98;;;;;;;9.09;66.15;100111.91;7793628;32;39296;-83
2022/12/27 02:32:29;;;;;;;32.03;16.50;;;;;;;9.10;65.92;100102.66;7773477;32;40067;-82
2022/12/27 02:36:47;;;;;;;25.08;15.65;;;;;;;9.03;66.16;100097.41;7766274;32;38811;-83
2022/12/27 03:15:56;;;;;;;23.08;13.23;;;;;;;9.20;66.07;100112.84;7765767;32;37997;-82
2022/12/27 03:34:30;;;;;;;25.62;14.32;;;;;;;9.31;65.75;100136.41;7766345;32;38043;-81
2022/12/27 03:38:51;;;;;;;22.00;13.05;;;;;;;9.12;66.08;100127.72;7764568;32;36934;-81
2022/12/27 03:43:12;;;;;;;25.45;13.77;;;;;;;9.32;65.46;100126.31;7764462;32;40023;-82
2022/12/27 03:47:45;;;;;;;27.30;14.63;;;;;;;9.29;65.69;100145.87;7765446;32;39702;-81
2022/12/27 03:52:16;;;;;;;29.20;15.00;;;;;;;9.02;67.25;100171.94;7764147;32;38774;-82
2022/12/27 03:56:33;;;;;;;22.00;13.57;;;;;;;8.80;68.52;100180.06;7792528;32;37146;-83
2022/12/27 04:00:49;;;;;;;23.77;12.95;;;;;;;9.13;67.17;100166.63;7791291;32;40056;-81
2022/12/27 04:05:06;;;;;;;25.05;13.32;;;;;;;8.95;67.56;100170.47;7792458;32;39870;-82
2022/12/27 04:36:51;;;;;;;22.73;13.23;;;;;;;8.85;69.33;100198.34;7764981;32;39444;-81
2022/12/27 04:55:29;;;;;;;19.50;11.15;;;;;;;8.96;69.12;100208.28;7790618;32;40028;-82
2022/12/27 05:04:20;;;;;;;18.17;11.27;;;;;;;8.87;68.92;100212.53;7791452;32;38642;-82
2022/12/27 05:17:47;;;;;;;15.77;9.80;;;;;;;8.82;68.21;100229.56;7764240;32;40018;-81
2022/12/27 05:26:38;;;;;;;17.67;10.25;;;;;;;8.87;67.25;100244.34;7765850;32;37205;-82
2022/12/27 05:30:58;;;;;;;24.45;11.02;;;;;;;9.13;66.33;100249.06;7767182;32;39273;-81
2022/12/27 05:35:15;;;;;;;16.48;10.35;;;;;;;8.93;66.60;100254.19;7769394;32;40643;-81
2022/12/27 05:39:31;;;;;;;17.08;10.57;;;;;;;8.88;66.73;100268.53;7794093;32;38720;-82
2022/12/27 05:43:50;;;;;;;17.95;10.63;;;;;;;8.72;66.79;100270.19;7793947;32;37075;-83
2022/12/27 05:48:07;;;;;;;15.95;9.85;;;;;;;8.56;67.46;100288.16;7794112;32;39809;-82
2022/12/27 05:52:23;;;;;;;18.77;10.55;;;;;;;8.59;67.19;100295.00;7794069;32;39963;-82
2022/12/27 05:56:40;;;;;;;18.48;10.70;;;;;;;8.62;67.09;100311.66;7793781;32;38035;-82
2022/12/27 06:00:56;;;;;;;28.25;13.50;;;;;;;8.56;67.35;100311.81;7793920;32;37198;-81
2022/12/27 06:05:12;;;;;;;33.28;16.08;;;;;;;8.54;67.61;100312.03;7774913;32;38975;-81
2022/12/27 06:09:29;;;;;;;22.77;10.82;;;;;;;8.76;66.85;100308.56;7766597;32;39762;-81
2022/12/27 06:13:50;;;;;;;14.25;8.88;;;;;;;8.38;67.41;100318.22;7766644;32;38020;-81
2022/12/27 06:18:06;;;;;;;14.15;8.82;;;;;;;8.44;67.45;100328.97;7773449;32;37930;-81
2022/12/27 06:22:23;;;;;;;13.62;8.63;;;;;;;8.53;66.74;100336.75;7793796;32;39203;-81
2022/12/27 06:26:41;;;;;;;13.80;8.40;;;;;;;8.76;65.79;100335.75;7782428;32;39983;-81
2022/12/27 06:30:59;;;;;;;13.32;7.53;;;;;;;7.88;68.90;100353.16;7792980;32;37911;-82
2022/12/27 06:35:15;;;;;;;14.60;7.87;;;;;;;8.13;67.88;100343.03;7793286;32;38590;-82
2022/12/27 06:39:32;;;;;;;14.63;7.68;;;;;;;8.54;66.42;100352.81;7785970;32;40033;-83
2022/12/27 06:43:52;;;;;;;17.02;9.60;;;;;;;8.53;66.35;100351.16;7768878;32;40793;-83
2022/12/27 06:48:08;;;;;;;13.73;7.30;;;;;;;8.87;68.26;100351.19;7792105;32;37906;-80
2022/12/27 06:52:25;;;;;;;10.13;6.25;;;;;;;8.95;65.31;100361.66;7793455;32;36974;-82
2022/12/27 06:56:41;;;;;;;12.18;6.60;;;;;;;8.13;67.57;100376.44;7793317;32;40000;-80
2022/12/27 07:00:57;;;;;;;7.57;4.50;;;;;;;8.20;67.47;100377.13;7793297;32;40791;-84
2022/12/27 07:05:14;;;;;;;6.55;4.35;;;;;;;8.31;66.92;100390.91;7793171;32;38050;-83
2022/12/27 07:09:30;;;;;;;5.93;3.87;;;;;;;8.64;66.06;100393.75;7758287;32;36911;-83
2022/12/27 07:13:49;;;;;;;9.40;4.25;;;;;;;8.41;66.86;100415.56;7783454;32;39005;-82
2022/12/27 07:18:05;;;;;;;5.55;3.70;;;;;;;8.36;66.65;100415.47;7791934;32;40728;-83
2022/12/27 07:22:21;;;;;;;4.75;3.10;;;;;;;8.13;67.06;100438.09;7791850;32;38613;-83
2022/12/27 07:26:38;;;;;;;4.15;3.15;;;;;;;8.19;66.49;100437.97;7792696;32;37014;-84
2022/12/27 07:30:54;;;;;;;3.55;2.95;;;;;;;8.06;66.54;100451.81;7792021;32;40424;-82
2022/12/27 07:35:10;;;;;;;3.50;2.90;;;;;;;8.02;67.40;100453.31;7791314;32;40734;-81
2022/12/27 07:39:27;;;;;;;4.03;3.00;;;;;;;8.41;66.22;100453.59;7765139;32;37723;-78
2022/12/27 07:43:43;;;;;;;5.05;3.40;;;;;;;7.84;67.60;100455.13;7780219;32;37847;-82
2022/12/27 07:48:01;;;;;;;4.82;3.45;;;;;;;7.70;68.07;100472.72;7789822;32;38472;-84
2022/12/27 07:52:17;;;;;;;7.05;3.90;;;;;;;7.73;67.25;100491.25;7790760;32;39866;-73
2022/12/27 07:56:33;;;;;;;7.18;4.12;;;;;;;8.20;67.55;100484.97;7789393;32;38557;-81
2022/12/27 08:00:51;;;;;;;5.62;3.47;;;;;;;8.28;65.54;100492.75;7792079;32;37653;-85
2022/12/27 08:05:08;;;;;;;4.85;2.95;;;;;;;8.57;64.49;100496.38;7790713;32;39187;-83
2022/12/27 08:09:28;;;;;;;5.28;3.40;;;;;;;8.25;64.80;100498.66;7765855;32;39906;-83
2022/12/27 08:13:44;;;;;;;5.55;3.17;;;;;;;8.30;64.67;100498.75;7789886;32;35620;-83
2022/12/27 08:18:01;;;;;;;3.22;2.50;;;;;;;8.34;63.95;100509.97;7790794;32;37873;-82
2022/12/27 08:22:17;;;;;;;5.60;3.50;;;;;;;7.83;63.99;100531.38;7765746;32;40145;-82
2022/12/27 08:26:33;;;;;;;4.25;3.00;;;;;;;8.22;63.39;100535.25;7765034;32;40695;-83
2022/12/27 08:30:49;;;;;;;2.72;1.90;;;;;;;8.25;62.68;100542.94;7764920;32;38685;-82
2022/12/27 08:35:06;;;;;;;1.90;1.80;;;;;;;7.98;62.56;100568.91;7765719;32;37021;-83
2022/12/27 08:39:42;;;;;;;3.10;2.28;;;;;;;8.21;61.43;100559.94;7781195;32;39468;-84
2022/12/27 08:43:58;;;;;;;3.90;2.50;;;;;;;8.33;61.22;100565.38;7792726;32;39995;-83
2022/12/27 08:48:14;;;;;;;3.05;2.22;;;;;;;8.21;61.15;100579.78;7791817;32;38900;-82
2022/12/27 08:52:31;;;;;;;3.17;2.20;;;;;;;8.88;60.11;100592.09;7791756;32;37555;-83
2022/12/27 08:56:47;;;;;;;1.67;1.58;;;;;;;8.72;60.70;100595.59;7791638;32;40023;-82
2022/12/27 09:01:10;;;;;;;3.25;1.90;;;;;;;9.15;59.49;100600.53;7782060;32;39959;-85
2022/12/27 09:05:28;;;;;;;2.25;1.83;;;;;;;8.93;59.83;100596.84;7790144;32;37554;-85
2022/12/27 09:09:45;;;;;;;1.75;1.58;;;;;;;8.89;60.05;100593.78;7786922;32;160433;-85
2022/12/27 09:14:23;;;;;;;1.95;1.70;;;;;;;9.35;59.00;100600.09;7790899;32;39386;-85
2022/12/27 09:18:40;;;;;;;1.67;1.58;;;;;;;9.38;58.74;100606.94;7791686;32;39931;-85
2022/12/27 09:22:57;;;;;;;2.17;1.50;;;;;;;9.86;56.74;100621.13;7763189;32;38598;-84
2022/12/27 09:27:13;;;;;;;1.60;1.50;;;;;;;9.54;56.41;100608.06;7763177;32;37614;-83
2022/12/27 09:31:29;;;;;;;1.42;1.30;;;;;;;9.54;56.11;100624.41;7774281;32;39381;-82
2022/12/27 09:35:46;;;;;;;1.95;1.75;;;;;;;9.30;56.02;100640.81;7790742;32;41230;-82
2022/12/27 09:40:02;;;;;;;1.50;1.40;;;;;;;9.24;54.49;100649.12;7789532;32;37960;-82
2022/12/27 09:44:22;;;;;;;1.67;1.58;;;;;;;9.16;52.76;100661.25;7791017;32;37472;-82
2022/12/27 09:48:39;;;;;;;2.03;1.80;;;;;;;8.97;51.74;100663.28;7789553;32;39198;-83
2022/12/27 09:53:05;;;;;;;2.03;1.62;;;;;;;9.03;51.00;100657.69;7788694;32;39969;-81
2022/12/27 09:57:25;;;;;;;1.70;1.60;;;;;;;9.10;50.21;100676.59;7789928;32;37969;-83
2022/12/27 10:01:43;;;;;;;2.30;1.80;;;;;;;9.46;49.73;100676.50;7784289;32;36895;-82
2022/12/27 10:06:26;;;;;;;1.52;1.42;;;;;;;9.69;46.37;100675.56;7790272;32;40307;-83
2022/12/27 10:10:48;;;;;;;1.70;1.60;;;;;;;9.87;47.80;100685.44;7788093;32;39844;-83
2022/12/27 10:15:17;;;;;;;2.95;1.60;;;;;;;9.98;47.02;100679.09;7792103;32;38653;-82
2022/12/27 10:19:45;;;;;;;3.22;1.70;;;;;;;9.94;46.84;100683.38;7793195;32;37632;-84
